Terminal Aerodrome Forecast
Issued by NWS

Current Version | Previous Version | Text Only | Print | Product List | Glossary On
Versions: 1 2 3 4 5 6 7 8 9 10 11 12 13 14 15 16 17 18 19 20 21 22 23 24
000
FTUS43 KGRR 021700
TAFMKG
TAF
KMKG 021723Z 0218/0318 14006KT P6SM SCT015 BKN045 BKN110
      TEMPO 0218/0220 5SM SHRA OVC015
     FM022000 16010KT P6SM OVC050
     FM030000 14005KT 6SM -SHRA BR VCTS BKN050CB OVC080
      TEMPO 0300/0304 2SM SHRA OVC015
     FM030600 18014KT 4SM -SHRA BR VCTS OVC007CB
     FM030900 22008KT 2SM SHRA BR OVC008
     FM031200 24006KT 3/4SM -DZ BR OVC004
     FM031400 29014G25KT 4SM -SHRA BR OVC015=

USA.gov is the U.S. government's official web portal to all federal, state and local government web resources and services.